Time;durP1;ratioP1;P1;durP2;ratioP2;P2;SDS_P1;SDS_P2;PMS_P1;PMS_P2;Temp;Humidity;BMP_temperature;BMP_pressure;BME280_temperature;BME280_humidity;BME280_pressure;Samples;Min_cycle;Max_cycle;Signal;HPM_P1;HPM_P2
2022/03/16 00:00:13;;;;;;;63.53;37.22;;;5.00;99.90;;;;;;5016068;28;20051;-83
2022/03/16 00:02:45;;;;;;;72.85;41.53;;;4.90;99.90;;;;;;5033563;28;20071;-83
2022/03/16 00:05:15;;;;;;;77.97;41.53;;;4.80;99.90;;;;;;5036276;28;20043;-84
2022/03/16 00:07:41;;;;;;;61.97;36.08;;;4.80;99.90;;;;;;5035151;28;20267;-83
2022/03/16 00:10:08;;;;;;;73.70;38.90;;;4.90;99.90;;;;;;5020716;28;20115;-83
2022/03/16 00:12:34;;;;;;;66.85;37.30;;;4.70;99.90;;;;;;5020567;28;20044;-84
2022/03/16 00:15:04;;;;;;;68.53;39.35;;;4.70;99.90;;;;;;5019743;28;20056;-84
2022/03/16 00:17:35;;;;;;;63.25;36.25;;;4.70;99.90;;;;;;5019513;28;20032;-84
2022/03/16 00:20:00;;;;;;;67.97;39.25;;;4.50;99.90;;;;;;5021545;28;20032;-84
2022/03/16 00:22:26;;;;;;;66.57;38.10;;;4.70;99.90;;;;;;5034870;28;20441;-83
2022/03/16 00:24:52;;;;;;;73.55;40.20;;;4.60;99.90;;;;;;5035611;28;20517;-84
2022/03/16 00:27:17;;;;;;;73.85;38.67;;;4.70;99.90;;;;;;5032361;28;20026;-84
2022/03/16 00:29:43;;;;;;;90.88;44.42;;;4.70;99.90;;;;;;5015897;28;20413;-83
2022/03/16 00:32:09;;;;;;;68.88;38.47;;;4.70;99.90;;;;;;5035097;28;20041;-83
2022/03/16 00:34:38;;;;;;;69.93;39.58;;;4.50;99.90;;;;;;5016354;28;20320;-83
2022/03/16 00:37:04;;;;;;;71.53;40.22;;;4.60;99.90;;;;;;5018538;28;20037;-84
2022/03/16 00:39:32;;;;;;;80.40;42.92;;;4.60;99.90;;;;;;5017848;28;20051;-83
2022/03/16 00:41:58;;;;;;;71.05;41.40;;;4.50;99.90;;;;;;5034581;28;20033;-84
2022/03/16 00:44:23;;;;;;;93.28;43.75;;;4.60;99.90;;;;;;5019698;28;20114;-83
2022/03/16 00:46:49;;;;;;;92.72;41.78;;;4.60;99.90;;;;;;5019457;28;20044;-83
2022/03/16 00:49:15;;;;;;;92.13;43.25;;;4.50;99.90;;;;;;5035739;28;20468;-83
2022/03/16 00:51:40;;;;;;;67.72;37.47;;;4.50;99.90;;;;;;5032836;28;20345;-84
2022/03/16 00:54:21;;;;;;;56.47;33.05;;;4.50;99.90;;;;;;5018306;28;20052;-84
2022/03/16 00:56:47;;;;;;;94.50;41.25;;;4.40;99.90;;;;;;5031604;28;20039;-84
2022/03/16 00:59:12;;;;;;;67.75;38.22;;;4.30;99.90;;;;;;5033586;28;20029;-83
2022/03/16 01:01:38;;;;;;;81.32;40.05;;;4.30;99.90;;;;;;5019467;28;20045;-83
2022/03/16 01:04:04;;;;;;;63.20;35.88;;;4.20;99.90;;;;;;5018501;28;20080;-84
2022/03/16 01:06:29;;;;;;;76.03;38.88;;;4.20;99.90;;;;;;5036080;28;20037;-84
2022/03/16 01:08:55;;;;;;;94.38;41.45;;;4.30;99.90;;;;;;5018543;28;20033;-83
2022/03/16 01:11:21;;;;;;;71.97;38.17;;;4.20;99.90;;;;;;5018012;28;20049;-83
2022/03/16 01:13:47;;;;;;;82.93;38.85;;;4.30;99.90;;;;;;5036355;28;20223;-83
2022/03/16 01:16:13;;;;;;;76.55;38.05;;;4.20;99.90;;;;;;5018142;28;20033;-83
2022/03/16 01:18:38;;;;;;;60.33;33.67;;;4.20;99.90;;;;;;5034328;28;20041;-83
2022/03/16 01:21:05;;;;;;;62.78;33.75;;;4.10;99.90;;;;;;5017805;28;20040;-83
2022/03/16 01:23:35;;;;;;;54.92;32.90;;;4.10;99.90;;;;;;5034776;28;20522;-83
2022/03/16 01:26:01;;;;;;;64.72;36.08;;;4.10;99.90;;;;;;5016557;28;20567;-84
2022/03/16 01:28:27;;;;;;;86.95;41.67;;;4.00;99.90;;;;;;5018150;28;20040;-83
2022/03/16 01:30:54;;;;;;;70.45;38.78;;;4.10;99.90;;;;;;5034164;28;20044;-83
2022/03/16 01:33:19;;;;;;;81.65;41.65;;;4.10;99.90;;;;;;5019610;28;20045;-83
2022/03/16 01:35:45;;;;;;;99.38;46.85;;;4.10;99.90;;;;;;5015585;28;20043;-84
2022/03/16 01:38:11;;;;;;;60.90;36.15;;;4.10;99.90;;;;;;5015958;28;20055;-84
2022/03/16 01:40:37;;;;;;;121.75;48.63;;;4.10;99.90;;;;;;5017540;28;20045;-83
2022/03/16 01:43:02;;;;;;;86.55;42.45;;;4.10;99.90;;;;;;5033945;28;20163;-83
2022/03/16 01:45:28;;;;;;;81.50;39.75;;;4.10;99.90;;;;;;5036072;28;20515;-84
2022/03/16 01:47:57;;;;;;;103.80;44.60;;;4.00;99.90;;;;;;5018849;28;20147;-83
2022/03/16 01:50:23;;;;;;;110.07;46.13;;;4.00;99.90;;;;;;5033884;28;20041;-84
2022/03/16 01:52:49;;;;;;;119.95;49.35;;;4.00;99.90;;;;;;5018313;28;20044;-84
2022/03/16 01:55:14;;;;;;;90.55;43.45;;;4.20;99.90;;;;;;5016219;28;20041;-84
2022/03/16 01:57:48;;;;;;;96.63;44.72;;;4.20;99.90;;;;;;5016614;28;20029;-84
2022/03/16 02:00:17;;;;;;;106.93;45.60;;;4.20;99.90;;;;;;5034431;28;20064;-83
2022/03/16 02:02:43;;;;;;;100.65;45.38;;;4.10;99.90;;;;;;5050012;28;20539;-84
2022/03/16 02:05:09;;;;;;;82.32;43.13;;;4.10;99.90;;;;;;5018793;28;20048;-82
2022/03/16 02:07:37;;;;;;;75.03;39.83;;;4.10;99.90;;;;;;5018259;28;21034;-84
2022/03/16 02:10:05;;;;;;;80.53;41.08;;;4.00;99.90;;;;;;5034943;28;20033;-83
2022/03/16 02:12:51;;;;;;;99.32;43.40;;;3.90;99.90;;;;;;5032654;28;20040;-83
2022/03/16 02:15:23;;;;;;;88.25;41.10;;;3.90;99.90;;;;;;5019018;28;20696;-83
2022/03/16 02:17:55;;;;;;;89.70;42.05;;;3.90;99.90;;;;;;5034104;28;20047;-83
2022/03/16 02:20:23;;;;;;;319.70;46.90;;;3.90;99.90;;;;;;5015870;28;20568;-84
2022/03/16 02:22:55;;;;;;;64.68;35.42;;;3.70;99.90;;;;;;5034721;28;20094;-84
2022/03/16 02:25:21;;;;;;;88.50;40.47;;;3.70;99.90;;;;;;5032631;28;20035;-83
2022/03/16 02:27:52;;;;;;;87.95;41.30;;;3.80;99.90;;;;;;5016803;28;20048;-84
2022/03/16 02:30:19;;;;;;;326.10;48.63;;;3.80;99.90;;;;;;5032728;28;20033;-84
2022/03/16 02:32:44;;;;;;;106.63;37.45;;;3.60;99.90;;;;;;5033861;28;20032;-83
2022/03/16 02:35:10;;;;;;;53.80;30.02;;;3.20;99.90;;;;;;5017294;28;20110;-82
2022/03/16 02:37:38;;;;;;;597.88;51.08;;;3.10;99.90;;;;;;5019665;28;20037;-84
2022/03/16 02:40:06;;;;;;;109.72;33.67;;;3.00;99.90;;;;;;5028664;28;20098;-84
2022/03/16 02:42:33;;;;;;;51.67;29.05;;;3.10;99.90;;;;;;5016166;28;21221;-84
2022/03/16 02:44:58;;;;;;;50.40;30.48;;;2.90;99.90;;;;;;5032419;28;20415;-83
2022/03/16 02:47:24;;;;;;;52.38;31.73;;;2.90;99.90;;;;;;5017461;28;20045;-84
2022/03/16 02:49:51;;;;;;;64.90;35.22;;;3.10;99.90;;;;;;5031545;28;20140;-83
2022/03/16 02:52:17;;;;;;;53.47;30.15;;;3.20;99.90;;;;;;5034537;28;20711;-83
2022/03/16 02:54:44;;;;;;;52.97;30.50;;;3.20;99.90;;;;;;5034203;28;20213;-84
2022/03/16 02:57:09;;;;;;;55.78;30.88;;;3.10;99.90;;;;;;5034410;28;20048;-83
2022/03/16 02:59:36;;;;;;;62.63;32.85;;;3.00;99.90;;;;;;5039081;28;20049;-83
2022/03/16 03:02:02;;;;;;;57.45;32.00;;;3.10;99.90;;;;;;5037693;28;20598;-84
2022/03/16 03:04:28;;;;;;;64.95;34.47;;;2.90;99.90;;;;;;5022878;28;20040;-83
2022/03/16 03:06:53;;;;;;;56.45;31.95;;;3.10;99.90;;;;;;5037527;28;20033;-83
2022/03/16 03:09:19;;;;;;;71.28;36.15;;;3.20;99.90;;;;;;5021392;28;20040;-83
2022/03/16 03:11:45;;;;;;;156.45;39.42;;;3.00;99.90;;;;;;5037784;28;20037;-83
2022/03/16 03:14:10;;;;;;;64.30;33.95;;;3.10;99.90;;;;;;5022511;28;20447;-84
2022/03/16 03:16:39;;;;;;;67.10;32.17;;;3.00;99.90;;;;;;5021119;28;20044;-84
2022/03/16 03:19:04;;;;;;;67.68;31.23;;;2.80;99.90;;;;;;5034979;28;20046;-84
2022/03/16 03:21:30;;;;;;;378.50;51.40;;;2.90;99.90;;;;;;5021233;28;20048;-84
2022/03/16 03:23:56;;;;;;;127.18;31.30;;;2.80;99.90;;;;;;5022152;28;20060;-84
2022/03/16 03:26:21;;;;;;;143.38;32.72;;;2.80;99.90;;;;;;5019361;28;20040;-83
2022/03/16 03:28:47;;;;;;;112.65;34.08;;;2.80;99.90;;;;;;5037080;28;20067;-83
2022/03/16 03:31:13;;;;;;;117.38;33.00;;;2.80;99.90;;;;;;5020773;28;20043;-83
2022/03/16 03:33:38;;;;;;;320.85;46.40;;;2.70;99.90;;;;;;5020581;28;20045;-83
2022/03/16 03:36:06;;;;;;;120.70;33.60;;;2.50;99.90;;;;;;5020709;28;20561;-84
2022/03/16 03:38:32;;;;;;;62.97;30.08;;;2.60;99.90;;;;;;5020496;28;20526;-83
2022/03/16 03:40:57;;;;;;;52.00;30.60;;;2.50;99.90;;;;;;5019326;28;20049;-84
2022/03/16 03:43:23;;;;;;;46.90;29.35;;;2.50;99.90;;;;;;5020021;28;20120;-83
2022/03/16 03:45:49;;;;;;;53.13;29.83;;;2.60;99.90;;;;;;5036661;28;20500;-83
2022/03/16 03:48:20;;;;;;;73.53;30.65;;;2.60;99.90;;;;;;5021861;28;20037;-84
2022/03/16 03:50:46;;;;;;;239.82;36.05;;;2.60;99.90;;;;;;5010641;28;20092;-83
2022/03/16 03:53:14;;;;;;;197.40;36.72;;;2.50;99.90;;;;;;5020926;28;20072;-83
2022/03/16 03:55:42;;;;;;;137.80;32.63;;;2.50;99.90;;;;;;5036812;28;20534;-84
2022/03/16 03:58:08;;;;;;;71.28;27.58;;;2.50;99.90;;;;;;5036501;28;20036;-83
2022/03/16 04:00:34;;;;;;;132.13;27.83;;;2.50;99.90;;;;;;5018795;28;20125;-83
2022/03/16 04:03:00;;;;;;;80.80;25.60;;;2.50;99.90;;;;;;5019288;28;20415;-83
2022/03/16 04:05:25;;;;;;;80.50;26.95;;;2.30;99.90;;;;;;5043384;28;20029;-84
2022/03/16 04:07:51;;;;;;;49.70;25.25;;;2.50;99.90;;;;;;5034537;28;20524;-83
2022/03/16 04:10:17;;;;;;;50.42;24.65;;;2.50;99.90;;;;;;5034185;28;20275;-83
2022/03/16 04:12:43;;;;;;;68.60;28.38;;;2.30;99.90;;;;;;5019876;28;20735;-83
2022/03/16 04:15:10;;;;;;;65.22;29.67;;;2.40;99.90;;;;;;5034882;28;20120;-84
2022/03/16 04:17:35;;;;;;;148.05;30.45;;;2.40;99.90;;;;;;5049609;28;20075;-83
2022/03/16 04:20:01;;;;;;;149.63;34.95;;;2.60;99.90;;;;;;5018479;28;20504;-83
2022/03/16 04:22:30;;;;;;;286.85;46.05;;;2.50;99.90;;;;;;5036991;28;20045;-82
2022/03/16 04:24:56;;;;;;;303.73;38.67;;;2.50;99.90;;;;;;5035433;28;20427;-83
2022/03/16 04:27:22;;;;;;;62.47;29.10;;;2.50;99.90;;;;;;5020273;28;20036;-84
2022/03/16 04:29:48;;;;;;;87.72;30.67;;;2.40;99.90;;;;;;5038107;28;20072;-83
2022/03/16 04:32:14;;;;;;;48.17;25.73;;;2.50;99.90;;;;;;5018617;28;20723;-83
2022/03/16 04:34:40;;;;;;;140.75;30.05;;;2.40;99.90;;;;;;5050238;28;20090;-83
2022/03/16 04:37:05;;;;;;;71.40;26.48;;;2.40;99.90;;;;;;5018755;28;20044;-84
2022/03/16 04:39:32;;;;;;;122.65;29.23;;;2.40;99.90;;;;;;5037288;28;20040;-83
2022/03/16 04:41:57;;;;;;;70.00;28.77;;;2.50;99.90;;;;;;5017523;28;20040;-83
2022/03/16 04:44:23;;;;;;;76.05;29.42;;;2.50;99.90;;;;;;5034940;28;20503;-83
2022/03/16 04:46:49;;;;;;;107.95;31.50;;;2.50;99.90;;;;;;5032968;28;20157;-83
2022/03/16 04:49:15;;;;;;;40.28;25.85;;;2.50;99.90;;;;;;5035568;28;20049;-83
2022/03/16 04:51:40;;;;;;;41.22;27.50;;;2.50;99.90;;;;;;5035703;28;20119;-83
2022/03/16 04:54:08;;;;;;;54.28;28.67;;;2.50;99.90;;;;;;5040136;28;20043;-83
2022/03/16 04:56:35;;;;;;;63.60;28.63;;;2.60;99.90;;;;;;5017446;28;20041;-83
2022/03/16 04:59:03;;;;;;;48.67;27.13;;;2.70;99.90;;;;;;5019924;28;20102;-83
2022/03/16 05:01:30;;;;;;;51.10;29.48;;;2.70;99.90;;;;;;5019404;28;20124;-84
2022/03/16 05:03:55;;;;;;;59.03;27.70;;;2.70;99.90;;;;;;5019340;28;20040;-83
2022/03/16 05:06:21;;;;;;;274.30;41.33;;;2.60;99.90;;;;;;5018967;28;20392;-84
2022/03/16 05:08:47;;;;;;;101.65;32.65;;;2.70;99.90;;;;;;5019705;28;20040;-84
2022/03/16 05:11:14;;;;;;;140.23;36.45;;;2.80;99.90;;;;;;5017035;28;20037;-83
2022/03/16 05:13:43;;;;;;;141.80;37.05;;;2.80;99.90;;;;;;5018356;28;20056;-84
2022/03/16 05:16:09;;;;;;;119.45;34.88;;;2.90;99.90;;;;;;5016162;28;20048;-84
2022/03/16 05:18:35;;;;;;;216.15;41.00;;;2.70;99.90;;;;;;5034685;28;20485;-83
2022/03/16 05:21:10;;;;;;;;;;;2.80;99.90;;;;;;5033367;28;20492;-83
2022/03/16 05:23:36;;;;;;;52.70;29.85;;;2.80;99.90;;;;;;5042936;28;19927;-83
2022/03/16 05:26:03;;;;;;;45.95;29.92;;;2.80;99.90;;;;;;5033856;28;20068;-83
2022/03/16 05:28:29;;;;;;;62.70;30.25;;;2.80;99.90;;;;;;5017589;28;20401;-83
2022/03/16 05:30:54;;;;;;;282.63;53.85;;;2.90;99.90;;;;;;5019630;28;20051;-83
2022/03/16 05:33:21;;;;;;;49.45;31.05;;;2.90;99.90;;;;;;5033824;28;20041;-84
2022/03/16 05:35:50;;;;;;;99.38;31.85;;;3.00;99.90;;;;;;5033393;28;20456;-83
2022/03/16 05:38:17;;;;;;;276.75;39.90;;;3.00;99.90;;;;;;5033187;28;20116;-83
2022/03/16 05:40:45;;;;;;;369.17;51.50;;;3.10;99.90;;;;;;5015197;28;20087;-83
2022/03/16 05:43:11;;;;;;;136.32;35.45;;;3.10;99.90;;;;;;5018873;28;20108;-83
2022/03/16 05:45:38;;;;;;;262.55;40.83;;;3.10;99.90;;;;;;5017937;28;20504;-83
2022/03/16 05:48:07;;;;;;;93.95;35.15;;;3.10;99.90;;;;;;5017955;28;20033;-83
2022/03/16 05:50:33;;;;;;;58.15;32.42;;;3.20;99.90;;;;;;5018515;28;20056;-83
2022/03/16 05:53:00;;;;;;;75.45;35.70;;;3.20;99.90;;;;;;5018006;28;20041;-83
2022/03/16 05:55:27;;;;;;;60.42;33.53;;;3.10;99.90;;;;;;5018669;28;20090;-83
2022/03/16 05:57:53;;;;;;;49.30;31.58;;;3.10;99.90;;;;;;5016614;28;20048;-83
2022/03/16 06:00:20;;;;;;;51.60;32.25;;;3.10;99.90;;;;;;5034271;28;20038;-83
2022/03/16 06:02:52;;;;;;;77.28;34.88;;;3.20;99.90;;;;;;5035002;28;20041;-83
2022/03/16 06:05:17;;;;;;;56.80;30.95;;;3.30;99.90;;;;;;5014931;28;20082;-83
2022/03/16 06:07:43;;;;;;;76.47;35.25;;;3.40;99.90;;;;;;5033183;28;20044;-83
2022/03/16 06:10:12;;;;;;;47.03;30.45;;;3.30;99.90;;;;;;5033710;28;20108;-83
2022/03/16 06:12:54;;;;;;;52.03;32.30;;;3.40;99.90;;;;;;5016792;28;20044;-83
2022/03/16 06:15:21;;;;;;;48.15;31.08;;;3.40;99.90;;;;;;5017070;28;20501;-83
2022/03/16 06:17:46;;;;;;;50.35;31.23;;;3.50;99.90;;;;;;5017908;28;20054;-83
2022/03/16 06:20:12;;;;;;;54.28;33.47;;;3.40;99.90;;;;;;5033105;28;20041;-83
2022/03/16 06:22:41;;;;;;;51.67;32.17;;;3.50;99.90;;;;;;5032753;28;20045;-84
2022/03/16 06:25:07;;;;;;;53.33;31.83;;;3.60;99.90;;;;;;5017292;28;20029;-83
2022/03/16 06:27:32;;;;;;;59.15;35.13;;;3.50;99.90;;;;;;5015341;28;20110;-83
2022/03/16 06:29:58;;;;;;;59.50;34.85;;;3.70;99.90;;;;;;5016710;28;20033;-84
2022/03/16 06:32:23;;;;;;;54.53;34.65;;;3.70;99.90;;;;;;5018385;28;20084;-83
2022/03/16 06:34:49;;;;;;;56.97;34.95;;;3.70;99.90;;;;;;5038795;28;20041;-84
2022/03/16 06:37:15;;;;;;;61.25;36.83;;;3.80;99.90;;;;;;5020087;28;20036;-84
2022/03/16 06:39:42;;;;;;;55.17;33.42;;;4.00;99.90;;;;;;5038036;28;20036;-83
2022/03/16 06:42:11;;;;;;;54.38;34.17;;;4.00;99.90;;;;;;5036749;28;20149;-84
2022/03/16 06:44:38;;;;;;;67.43;37.25;;;4.10;99.90;;;;;;5037564;28;20481;-83
2022/03/16 06:47:04;;;;;;;64.75;36.40;;;4.20;99.90;;;;;;5021605;28;20130;-84
2022/03/16 06:49:29;;;;;;;56.58;34.00;;;4.30;99.90;;;;;;5022135;28;20532;-84
2022/03/16 06:51:55;;;;;;;57.60;34.63;;;4.40;99.90;;;;;;5038286;28;20041;-83
2022/03/16 06:54:20;;;;;;;60.60;35.45;;;4.50;99.90;;;;;;5038457;28;20120;-83
2022/03/16 06:56:46;;;;;;;54.70;34.40;;;4.50;99.90;;;;;;5021388;28;20041;-84
2022/03/16 06:59:13;;;;;;;59.58;33.97;;;4.50;99.90;;;;;;5021885;28;20044;-83
2022/03/16 07:01:39;;;;;;;63.13;37.97;;;4.60;99.90;;;;;;5019715;28;20084;-83
2022/03/16 07:04:08;;;;;;;78.65;40.30;;;4.70;99.90;;;;;;5018489;28;20374;-83
2022/03/16 07:06:34;;;;;;;71.57;38.75;;;4.80;99.90;;;;;;5035011;28;20117;-83
2022/03/16 07:08:59;;;;;;;65.70;38.50;;;5.00;99.90;;;;;;5020410;28;20094;-84
2022/03/16 07:11:25;;;;;;;85.82;40.08;;;5.00;99.90;;;;;;5011971;28;20045;-83
2022/03/16 07:16:54;;;;;;;61.13;36.28;;;5.10;99.90;;;;;;4961942;28;20406;-84
2022/03/16 07:19:20;;;;;;;57.80;35.92;;;5.30;99.90;;;;;;5022568;28;20724;-84
2022/03/16 07:21:45;;;;;;;64.80;35.92;;;5.30;99.90;;;;;;5014446;28;20044;-84
2022/03/16 07:24:11;;;;;;;61.55;36.78;;;5.50;99.90;;;;;;5022960;28;20488;-83
2022/03/16 07:26:37;;;;;;;61.97;36.05;;;5.50;99.90;;;;;;5017306;28;20543;-83
2022/03/16 07:29:02;;;;;;;58.25;36.22;;;5.50;99.90;;;;;;5021122;28;20098;-84
2022/03/16 07:31:28;;;;;;;56.63;34.40;;;5.60;99.90;;;;;;5018269;28;20040;-84
2022/03/16 07:33:54;;;;;;;64.00;36.38;;;5.70;99.90;;;;;;5035510;28;20432;-84
2022/03/16 07:36:23;;;;;;;58.45;36.20;;;5.70;99.90;;;;;;5018560;28;20041;-83
2022/03/16 07:38:49;;;;;;;64.28;36.65;;;5.70;99.90;;;;;;5033859;28;20080;-84
2022/03/16 07:41:15;;;;;;;57.60;37.05;;;5.90;99.90;;;;;;5035566;28;20330;-84
2022/03/16 07:43:41;;;;;;;65.75;36.95;;;6.00;99.90;;;;;;5022879;28;20041;-83
2022/03/16 07:46:07;;;;;;;56.25;35.13;;;6.20;99.90;;;;;;5017674;28;20120;-83
2022/03/16 07:48:34;;;;;;;60.45;37.00;;;6.40;99.90;;;;;;5022242;28;20457;-84
2022/03/16 07:51:03;;;;;;;57.22;36.13;;;6.40;99.90;;;;;;5022687;28;20076;-83
2022/03/16 07:53:29;;;;;;;53.03;35.17;;;6.50;99.90;;;;;;5039570;28;20044;-84
2022/03/16 07:55:57;;;;;;;52.60;34.35;;;6.60;99.90;;;;;;5022124;28;20503;-84
2022/03/16 07:58:23;;;;;;;53.67;34.35;;;6.70;99.90;;;;;;5020239;28;20037;-84
2022/03/16 08:00:49;;;;;;;58.55;35.88;;;6.90;99.90;;;;;;5020652;28;20066;-84
2022/03/16 08:03:14;;;;;;;52.30;36.53;;;6.90;99.90;;;;;;5034785;28;20033;-84
2022/03/16 08:05:43;;;;;;;49.63;33.80;;;7.10;99.90;;;;;;5012475;28;20045;-83
2022/03/16 08:08:12;;;;;;;48.42;33.72;;;7.10;99.90;;;;;;5033782;28;20103;-84
2022/03/16 08:10:37;;;;;;;52.38;35.42;;;7.30;99.90;;;;;;5022435;28;20029;-84
2022/03/16 08:13:04;;;;;;;51.22;33.60;;;7.30;99.90;;;;;;5020256;28;20127;-84
2022/03/16 08:15:30;;;;;;;48.88;34.13;;;7.40;99.90;;;;;;5016274;28;20477;-84
2022/03/16 08:17:56;;;;;;;52.53;36.90;;;7.40;99.90;;;;;;5037729;28;20076;-84
2022/03/16 08:20:22;;;;;;;50.58;34.72;;;7.60;99.90;;;;;;5021055;28;20083;-83
2022/03/16 08:22:51;;;;;;;51.47;34.33;;;7.60;99.90;;;;;;5021695;28;20140;-84
2022/03/16 08:25:16;;;;;;;50.17;34.17;;;7.60;99.90;;;;;;5023455;28;20477;-85
2022/03/16 08:27:42;;;;;;;50.65;33.85;;;7.80;99.90;;;;;;5032219;28;20090;-84
2022/03/16 08:30:13;;;;;;;46.72;32.75;;;7.90;99.90;;;;;;5018328;28;20207;-84
2022/03/16 08:32:40;;;;;;;50.70;32.55;;;8.00;99.90;;;;;;5019862;28;20123;-84
2022/03/16 08:35:06;;;;;;;46.20;32.47;;;8.10;99.90;;;;;;5015306;28;20041;-84
2022/03/16 08:37:32;;;;;;;43.72;32.13;;;8.40;99.90;;;;;;5020878;28;20043;-84
2022/03/16 08:39:58;;;;;;;49.63;32.13;;;8.50;99.90;;;;;;5020816;28;20375;-85
2022/03/16 08:42:23;;;;;;;43.20;31.38;;;8.60;99.90;;;;;;5019173;28;20494;-84
2022/03/16 08:44:49;;;;;;;40.25;29.27;;;8.70;99.90;;;;;;5023656;28;20048;-85
2022/03/16 08:47:20;;;;;;;42.67;30.90;;;8.80;99.90;;;;;;5019277;28;20496;-84
2022/03/16 08:49:47;;;;;;;39.53;29.42;;;8.90;99.90;;;;;;5034646;28;20085;-84
2022/03/16 08:52:13;;;;;;;38.72;28.48;;;8.90;99.90;;;;;;5035297;28;20075;-84
2022/03/16 08:54:40;;;;;;;38.03;28.13;;;9.00;99.90;;;;;;5037466;28;20052;-84
2022/03/16 08:57:08;;;;;;;37.08;27.60;;;9.20;99.90;;;;;;5034425;28;20205;-85
2022/03/16 08:59:39;;;;;;;38.95;28.42;;;9.30;99.90;;;;;;5019545;28;20045;-84
2022/03/16 09:02:06;;;;;;;40.13;28.50;;;9.40;99.90;;;;;;5022363;28;20045;-85
2022/03/16 09:04:32;;;;;;;37.50;28.48;;;9.50;99.90;;;;;;5019634;28;20063;-84
2022/03/16 09:07:02;;;;;;;40.08;28.60;;;9.70;99.90;;;;;;5029890;28;20041;-85
2022/03/16 09:09:29;;;;;;;39.28;28.45;;;9.80;99.90;;;;;;5019980;28;20071;-85
2022/03/16 09:11:57;;;;;;;40.72;29.42;;;9.90;99.90;;;;;;5048549;28;20045;-85
2022/03/16 09:14:23;;;;;;;38.47;27.38;;;10.10;99.90;;;;;;5021287;28;20469;-85
2022/03/16 09:16:52;;;;;;;39.05;27.33;;;10.20;99.90;;;;;;5020808;28;20534;-85
2022/03/16 09:19:26;;;;;;;36.75;27.30;;;10.30;99.90;;;;;;5020296;28;20069;-85
2022/03/16 09:22:00;;;;;;;36.55;27.27;;;10.40;99.90;;;;;;5035913;28;20062;-85
2022/03/16 09:24:32;;;;;;;38.20;27.77;;;10.50;99.90;;;;;;5017459;28;20431;-85
2022/03/16 09:26:59;;;;;;;38.83;27.02;;;10.70;99.90;;;;;;5031212;28;20036;-85
2022/03/16 09:29:31;;;;;;;40.10;27.25;;;10.80;99.90;;;;;;5017844;28;20080;-85
2022/03/16 09:32:00;;;;;;;37.75;26.27;;;10.90;99.90;;;;;;5025903;28;20553;-85
2022/03/16 09:34:25;;;;;;;34.08;25.02;;;11.00;99.90;;;;;;5018471;28;20480;-85
2022/03/16 09:36:54;;;;;;;33.35;23.85;;;11.10;99.90;;;;;;5010465;28;20065;-85
2022/03/16 09:39:22;;;;;;;34.38;22.98;;;11.20;99.90;;;;;;5018714;28;20052;-86
2022/03/16 09:41:54;;;;;;;32.45;23.48;;;11.40;99.90;;;;;;5035750;28;20040;-85
2022/03/16 09:44:30;;;;;;;28.77;21.15;;;11.60;99.90;;;;;;5018442;28;20068;-85
2022/03/16 09:46:57;;;;;;;31.58;20.95;;;11.60;99.90;;;;;;5018475;28;20397;-86
2022/03/16 09:49:29;;;;;;;30.13;22.02;;;11.60;99.90;;;;;;5018136;28;20045;-85
2022/03/16 09:51:56;;;;;;;28.90;20.95;;;11.70;99.90;;;;;;5018367;28;20512;-85
2022/03/16 09:54:22;;;;;;;27.17;19.45;;;11.80;99.90;;;;;;5019273;28;20037;-86
2022/03/16 09:56:52;;;;;;;27.20;19.60;;;11.80;55.10;;;;;;5029881;28;20162;-86
2022/03/16 09:59:20;;;;;;;26.27;19.15;;;12.00;19.50;;;;;;5035538;28;20041;-85
2022/03/16 10:02:04;;;;;;;27.42;18.63;;;12.10;73.10;;;;;;5009900;28;20057;-86
2022/03/16 10:04:39;;;;;;;24.02;17.20;;;12.20;37.40;;;;;;5019884;28;20275;-86
2022/03/16 10:07:19;;;;;;;24.75;17.13;;;12.10;1.00;;;;;;5022070;28;20041;-86
2022/03/16 10:15:20;;;;;;;20.92;15.80;;;12.50;1.00;;;;;;5029604;28;20477;-85
2022/03/16 10:17:59;;;;;;;19.65;14.77;;;12.60;99.90;;;;;;5018441;28;20041;-86
2022/03/16 10:20:31;;;;;;;22.55;14.25;;;12.80;1.00;;;;;;5012362;28;20051;-86
2022/03/16 10:23:08;;;;;;;18.13;13.00;;;12.80;99.90;;;;;;5017772;28;20168;-85
2022/03/16 10:25:39;;;;;;;16.48;12.95;;;13.00;99.90;;;;;;5033055;28;20080;-86
2022/03/16 10:28:10;;;;;;;17.23;12.15;;;13.10;99.90;;;;;;5034793;28;20037;-86
2022/03/16 10:30:57;;;;;;;14.93;11.00;;;13.10;99.90;;;;;;5019411;28;20037;-85
2022/03/16 10:33:29;;;;;;;13.73;10.85;;;13.20;46.50;;;;;;5020462;28;20102;-85
2022/03/16 10:36:00;;;;;;;15.07;10.40;;;13.00;1.00;;;;;;5049861;28;20042;-86
2022/03/16 10:38:57;;;;;;;14.15;11.55;;;13.00;14.40;;;;;;5023467;28;20029;-86
2022/03/16 10:47:22;;;;;;;13.70;10.90;;;13.50;91.70;;;;;;5023810;28;20079;-86
2022/03/16 10:50:06;;;;;;;16.00;11.63;;;13.30;1.00;;;;;;5046061;28;20149;-85
2022/03/16 10:52:41;;;;;;;17.05;11.40;;;13.50;19.20;;;;;;5017370;28;20546;-86
2022/03/16 10:55:08;;;;;;;14.73;11.70;;;13.50;1.00;;;;;;5019386;28;20057;-85
2022/03/16 10:57:34;;;;;;;13.60;11.13;;;13.50;99.90;;;;;;5017458;28;20052;-86
2022/03/16 11:00:02;;;;;;;16.08;12.07;;;13.60;99.90;;;;;;5017388;28;20049;-85
2022/03/16 11:02:34;;;;;;;18.92;12.05;;;13.60;99.90;;;;;;5018267;28;20455;-86
2022/03/16 11:05:00;;;;;;;14.95;11.52;;;13.70;99.90;;;;;;5032251;28;20469;-86
2022/03/16 11:07:32;;;;;;;15.32;11.98;;;13.80;99.90;;;;;;5013413;28;20037;-85
2022/03/16 11:10:01;;;;;;;16.08;11.57;;;14.00;99.90;;;;;;5033336;28;20319;-86
2022/03/16 11:15:13;;;;;;;16.52;12.32;;;14.20;99.90;;;;;;5033201;28;20056;-86
2022/03/16 11:17:40;;;;;;;19.58;12.48;;;14.30;99.90;;;;;;5018061;28;20099;-85
2022/03/16 11:20:12;;;;;;;16.75;12.20;;;14.30;99.90;;;;;;5021113;28;20037;-86
2022/03/16 11:26:01;;;;;;;16.65;13.55;;;14.60;99.90;;;;;;5037762;28;20044;-86
2022/03/16 11:28:50;;;;;;;19.42;13.88;;;14.60;99.90;;;;;;5021467;28;20789;-86
2022/03/16 11:31:32;;;;;;;16.35;12.95;;;14.60;99.90;;;;;;5019244;28;20044;-86
2022/03/16 11:33:59;;;;;;;14.90;11.30;;;14.80;99.90;;;;;;5022965;28;20040;-86
2022/03/16 11:36:40;;;;;;;19.70;12.70;;;14.80;96.70;;;;;;5015549;28;20443;-86
2022/03/16 11:39:18;;;;;;;16.67;12.60;;;14.80;99.90;;;;;;5053812;28;20344;-86
2022/03/16 11:41:53;;;;;;;15.75;11.70;;;15.20;99.90;;;;;;5037557;28;20522;-87
2022/03/16 11:44:28;;;;;;;13.18;10.27;;;15.10;29.10;;;;;;5022388;28;20068;-86
2022/03/16 11:47:25;;;;;;;14.27;10.75;;;14.90;10.40;;;;;;5020152;28;20484;-86
2022/03/16 11:50:11;;;;;;;16.30;10.27;;;15.10;1.00;;;;;;5032126;28;20127;-86
2022/03/16 11:52:58;;;;;;;;;;;15.00;70.70;;;;;;5039748;28;20080;-86
2022/03/16 11:55:51;;;;;;;14.70;10.27;;;15.20;99.90;;;;;;5037621;28;20350;-86
2022/03/16 11:58:32;;;;;;;15.77;11.00;;;15.20;1.00;;;;;;5021783;28;20056;-86
2022/03/16 12:01:23;;;;;;;15.95;11.48;;;15.40;86.50;;;;;;5032185;28;20516;-86
2022/03/16 12:04:08;;;;;;;15.20;10.82;;;15.70;99.90;;;;;;5023195;28;20036;-87
2022/03/16 12:07:04;;;;;;;16.70;11.88;;;15.80;68.20;;;;;;5041743;28;20147;-87
2022/03/16 12:09:52;;;;;;;17.08;11.25;;;15.60;1.00;;;;;;5023039;28;20040;-86
2022/03/16 12:12:54;;;;;;;17.08;11.82;;;15.60;1.00;;;;;;5036605;28;20041;-86
2022/03/16 12:15:41;;;;;;;15.40;10.70;;;15.80;1.00;;;;;;5021373;28;20069;-86
2022/03/16 12:18:11;;;;;;;15.45;11.25;;;15.80;1.00;;;;;;5020378;28;20132;-85
2022/03/16 12:20:53;;;;;;;15.38;11.07;;;15.80;1.00;;;;;;5032759;28;20533;-85
2022/03/16 12:23:45;;;;;;;14.55;11.18;;;15.80;1.00;;;;;;5037152;28;20044;-85
2022/03/16 12:26:12;;;;;;;16.27;11.38;;;16.00;1.00;;;;;;5021881;28;20045;-86
2022/03/16 12:28:56;;;;;;;14.55;11.18;;;15.80;1.00;;;;;;5021067;28;20098;-85
2022/03/16 12:31:34;;;;;;;14.95;11.18;;;16.10;1.00;;;;;;5022235;28;20044;-86
2022/03/16 12:34:01;;;;;;;16.48;11.38;;;16.30;1.00;;;;;;5020912;28;20032;-86
2022/03/16 12:36:32;;;;;;;16.65;12.15;;;16.20;1.00;;;;;;5034579;28;20055;-86
2022/03/16 12:39:13;;;;;;;16.27;11.70;;;16.10;1.00;;;;;;5033384;28;20053;-85
2022/03/16 12:44:24;;;;;;;13.32;10.32;;;16.40;1.00;;;;;;5035502;28;20096;-86
2022/03/16 12:47:14;;;;;;;14.32;11.18;;;16.30;1.00;;;;;;5038230;28;20083;-86
2022/03/16 12:49:48;;;;;;;14.82;10.68;;;16.60;1.00;;;;;;5012451;28;20076;-86
2022/03/16 12:52:26;;;;;;;12.63;10.25;;;16.70;99.90;;;;;;5009942;28;20072;-85
2022/03/16 12:54:56;;;;;;;14.20;10.27;;;16.50;99.90;;;;;;5020044;28;20049;-86
2022/03/16 12:57:26;;;;;;;17.65;10.23;;;16.80;99.90;;;;;;5018788;28;20123;-86
2022/03/16 12:59:57;;;;;;;15.02;11.13;;;16.50;99.90;;;;;;5020698;28;21152;-86
2022/03/16 13:02:30;;;;;;;17.50;10.98;;;16.70;99.90;;;;;;5036100;28;20051;-86
2022/03/16 13:05:00;;;;;;;14.15;10.23;;;16.50;99.90;;;;;;5016514;28;20048;-86